sensor_id;sensor_type;location;lat;lon;timestamp;pressure;altitude;pressure_sealevel;temperature;humidity
7832;BME280;3961;42.058;25.586;2023-02-22T00:00:20;63112.56;;;7.95;66.47
7832;BME280;3961;42.058;25.586;2023-02-22T00:03:05;63114.78;;;8.02;66.40
7832;BME280;3961;42.058;25.586;2023-02-22T00:05:32;63115.44;;;7.98;65.78
7832;BME280;3961;42.058;25.586;2023-02-22T00:07:58;63098.16;;;7.83;66.16
7832;BME280;3961;42.058;25.586;2023-02-22T00:10:25;63081.50;;;7.68;67.19
7832;BME280;3961;42.058;25.586;2023-02-22T00:12:52;63070.53;;;7.58;68.00
7832;BME280;3961;42.058;25.586;2023-02-22T00:15:20;63100.47;;;7.85;66.49
7832;BME280;3961;42.058;25.586;2023-02-22T00:17:46;63089.22;;;7.77;66.57
7832;BME280;3961;42.058;25.586;2023-02-22T00:20:13;63103.03;;;7.89;66.17
7832;BME280;3961;42.058;25.586;2023-02-22T00:22:42;63105.09;;;7.89;66.25
7832;BME280;3961;42.058;25.586;2023-02-22T00:25:08;63088.41;;;7.74;67.14
7832;BME280;3961;42.058;25.586;2023-02-22T00:27:35;63084.03;;;7.72;66.84
7832;BME280;3961;42.058;25.586;2023-02-22T00:30:02;63095.78;;;7.85;66.97
7832;BME280;3961;42.058;25.586;2023-02-22T00:32:28;63109.34;;;7.95;66.96
7832;BME280;3961;42.058;25.586;2023-02-22T00:34:53;63077.69;;;7.67;66.87
7832;BME280;3961;42.058;25.586;2023-02-22T00:37:19;63043.75;;;7.37;68.14
7832;BME280;3961;42.058;25.586;2023-02-22T00:39:46;63022.78;;;7.16;68.75
7832;BME280;3961;42.058;25.586;2023-02-22T00:42:13;63036.75;;;7.35;67.78
7832;BME280;3961;42.058;25.586;2023-02-22T00:44:38;63021.28;;;7.17;68.00
7832;BME280;3961;42.058;25.586;2023-02-22T00:47:04;63025.41;;;7.16;67.63
7832;BME280;3961;42.058;25.586;2023-02-22T00:49:30;63026.81;;;7.20;67.72
7832;BME280;3961;42.058;25.586;2023-02-22T00:51:55;63031.75;;;7.22;67.83
7832;BME280;3961;42.058;25.586;2023-02-22T00:54:21;63062.47;;;7.51;67.26
7832;BME280;3961;42.058;25.586;2023-02-22T00:56:46;63059.03;;;7.48;67.02
7832;BME280;3961;42.058;25.586;2023-02-22T00:59:12;63064.69;;;7.58;67.22
7832;BME280;3961;42.058;25.586;2023-02-22T01:01:38;63085.53;;;7.71;66.37
7832;BME280;3961;42.058;25.586;2023-02-22T01:04:03;63090.69;;;7.76;66.53
7832;BME280;3961;42.058;25.586;2023-02-22T01:06:29;63049.50;;;7.42;67.20
7832;BME280;3961;42.058;25.586;2023-02-22T01:08:54;63068.81;;;7.57;65.96
7832;BME280;3961;42.058;25.586;2023-02-22T01:11:20;63042.94;;;7.34;68.02
7832;BME280;3961;42.058;25.586;2023-02-22T01:13:46;63005.19;;;7.03;70.15
7832;BME280;3961;42.058;25.586;2023-02-22T01:16:12;62966.44;;;6.66;72.34
7832;BME280;3961;42.058;25.586;2023-02-22T01:18:38;62971.28;;;6.73;73.29
7832;BME280;3961;42.058;25.586;2023-02-22T01:21:04;62958.13;;;6.57;73.60
7832;BME280;3961;42.058;25.586;2023-02-22T01:23:29;62967.25;;;6.69;73.02
7832;BME280;3961;42.058;25.586;2023-02-22T01:25:55;63002.91;;;7.01;72.64
7832;BME280;3961;42.058;25.586;2023-02-22T01:28:21;62996.00;;;6.95;72.58
7832;BME280;3961;42.058;25.586;2023-02-22T01:30:47;63007.84;;;7.03;72.29
7832;BME280;3961;42.058;25.586;2023-02-22T01:33:13;63035.09;;;7.29;71.24
7832;BME280;3961;42.058;25.586;2023-02-22T01:35:40;63033.72;;;7.26;70.74
7832;BME280;3961;42.058;25.586;2023-02-22T01:38:10;63005.28;;;6.98;72.39
7832;BME280;3961;42.058;25.586;2023-02-22T01:40:38;63008.91;;;7.08;72.64
7832;BME280;3961;42.058;25.586;2023-02-22T01:43:29;63000.03;;;6.98;72.17
7832;BME280;3961;42.058;25.586;2023-02-22T01:46:03;62962.06;;;6.65;74.66
7832;BME280;3961;42.058;25.586;2023-02-22T01:48:31;62941.28;;;6.51;74.81
7832;BME280;3961;42.058;25.586;2023-02-22T01:51:00;62955.16;;;6.59;73.93
7832;BME280;3961;42.058;25.586;2023-02-22T01:53:40;62950.31;;;6.52;75.26
7832;BME280;3961;42.058;25.586;2023-02-22T01:56:07;62957.47;;;6.61;74.61
7832;BME280;3961;42.058;25.586;2023-02-22T01:58:35;62973.66;;;6.70;74.83
7832;BME280;3961;42.058;25.586;2023-02-22T02:01:02;63002.66;;;6.98;73.50
7832;BME280;3961;42.058;25.586;2023-02-22T02:03:29;62973.91;;;6.73;74.52
7832;BME280;3961;42.058;25.586;2023-02-22T02:06:00;62916.09;;;6.24;76.40
7832;BME280;3961;42.058;25.586;2023-02-22T02:11:15;62923.88;;;6.29;75.72
7832;BME280;3961;42.058;25.586;2023-02-22T02:13:42;62949.41;;;6.54;75.27
7832;BME280;3961;42.058;25.586;2023-02-22T02:16:08;62940.00;;;6.43;75.97
7832;BME280;3961;42.058;25.586;2023-02-22T02:18:33;62907.94;;;6.22;76.81
7832;BME280;3961;42.058;25.586;2023-02-22T02:21:24;62925.63;;;6.30;77.05
7832;BME280;3961;42.058;25.586;2023-02-22T02:34:55;62951.47;;;6.53;76.16
7832;BME280;3961;42.058;25.586;2023-02-22T02:37:51;62925.63;;;6.30;79.38
7832;BME280;3961;42.058;25.586;2023-02-22T02:45:34;62909.19;;;6.18;78.22
7832;BME280;3961;42.058;25.586;2023-02-22T02:48:05;62948.84;;;6.53;78.12
7832;BME280;3961;42.058;25.586;2023-02-22T02:50:42;62940.22;;;6.46;76.84
7832;BME280;3961;42.058;25.586;2023-02-22T02:53:09;62924.13;;;6.31;78.98
7832;BME280;3961;42.058;25.586;2023-02-22T02:55:36;62848.38;;;5.60;81.40
7832;BME280;3961;42.058;25.586;2023-02-22T02:58:05;62779.16;;;5.01;84.18
7832;BME280;3961;42.058;25.586;2023-02-22T03:00:38;62865.84;;;5.78;84.23
7832;BME280;3961;42.058;25.586;2023-02-22T03:08:56;62849.09;;;5.67;84.02
7832;BME280;3961;42.058;25.586;2023-02-22T03:11:27;62849.50;;;5.61;82.59
7832;BME280;3961;42.058;25.586;2023-02-22T03:22:17;62846.78;;;5.65;83.88
7832;BME280;3961;42.058;25.586;2023-02-22T03:25:16;62873.06;;;5.82;83.32
7832;BME280;3961;42.058;25.586;2023-02-22T03:27:49;62890.22;;;6.01;81.59
7832;BME280;3961;42.058;25.586;2023-02-22T03:30:36;62873.31;;;5.84;82.19
7832;BME280;3961;42.058;25.586;2023-02-22T03:33:07;62878.81;;;5.87;83.12
7832;BME280;3961;42.058;25.586;2023-02-22T03:35:39;62877.91;;;5.88;82.54
7832;BME280;3961;42.058;25.586;2023-02-22T03:38:10;62895.97;;;6.06;81.92
7832;BME280;3961;42.058;25.586;2023-02-22T03:40:40;62922.16;;;6.27;80.83
7832;BME280;3961;42.058;25.586;2023-02-22T03:43:16;62919.19;;;6.29;79.87
7832;BME280;3961;42.058;25.586;2023-02-22T03:45:44;62924.13;;;6.31;79.10
7832;BME280;3961;42.058;25.586;2023-02-22T03:50:40;62896.88;;;6.05;80.29
7832;BME280;3961;42.058;25.586;2023-02-22T03:53:05;62882.19;;;5.94;82.46
7832;BME280;3961;42.058;25.586;2023-02-22T03:55:32;62862.88;;;5.80;83.04
7832;BME280;3961;42.058;25.586;2023-02-22T03:58:00;62880.78;;;5.91;83.82
7832;BME280;3961;42.058;25.586;2023-02-22T04:00:31;62879.94;;;5.88;83.28
7832;BME280;3961;42.058;25.586;2023-02-22T04:02:56;62885.97;;;5.95;83.45
7832;BME280;3961;42.058;25.586;2023-02-22T04:05:23;62902.88;;;6.13;82.96
7832;BME280;3961;42.058;25.586;2023-02-22T04:07:51;62914.34;;;6.23;82.55
7832;BME280;3961;42.058;25.586;2023-02-22T04:10:17;62894.25;;;6.05;83.79
7832;BME280;3961;42.058;25.586;2023-02-22T04:12:42;62919.03;;;6.22;82.52
7832;BME280;3961;42.058;25.586;2023-02-22T04:15:10;62921.91;;;6.25;81.49
7832;BME280;3961;42.058;25.586;2023-02-22T04:17:37;62893.78;;;6.00;81.40
7832;BME280;3961;42.058;25.586;2023-02-22T04:20:03;62883.34;;;5.95;83.04
7832;BME280;3961;42.058;25.586;2023-02-22T04:22:29;62853.44;;;5.69;83.42
7832;BME280;3961;42.058;25.586;2023-02-22T04:24:54;62897.69;;;6.08;83.22
7832;BME280;3961;42.058;25.586;2023-02-22T04:27:20;62891.72;;;6.00;83.19
7832;BME280;3961;42.058;25.586;2023-02-22T04:29:45;62879.06;;;5.89;85.19
7832;BME280;3961;42.058;25.586;2023-02-22T04:32:11;62892.88;;;6.01;83.92
7832;BME280;3961;42.058;25.586;2023-02-22T04:34:36;62887.69;;;5.97;82.75
7832;BME280;3961;42.058;25.586;2023-02-22T04:37:02;62889.91;;;6.03;82.67
7832;BME280;3961;42.058;25.586;2023-02-22T04:39:28;62852.88;;;5.68;83.27
7832;BME280;3961;42.058;25.586;2023-02-22T04:41:53;62881.38;;;5.91;84.82
7832;BME280;3961;42.058;25.586;2023-02-22T04:44:19;62892.53;;;6.03;83.67
7832;BME280;3961;42.058;25.586;2023-02-22T04:46:44;62862.31;;;5.79;85.17
7832;BME280;3961;42.058;25.586;2023-02-22T04:49:10;62877.59;;;5.90;85.05
7832;BME280;3961;42.058;25.586;2023-02-22T04:51:36;62884.56;;;5.92;84.21
7832;BME280;3961;42.058;25.586;2023-02-22T04:54:02;62892.28;;;6.01;83.01
7832;BME280;3961;42.058;25.586;2023-02-22T04:56:28;62871.59;;;5.83;85.14
7832;BME280;3961;42.058;25.586;2023-02-22T04:58:54;62868.16;;;5.80;85.43
7832;BME280;3961;42.058;25.586;2023-02-22T05:01:19;62869.06;;;5.78;85.07
7832;BME280;3961;42.058;25.586;2023-02-22T05:03:45;62899.44;;;6.10;84.24
7832;BME280;3961;42.058;25.586;2023-02-22T05:06:10;62909.75;;;6.19;84.29
7832;BME280;3961;42.058;25.586;2023-02-22T05:08:38;62933.41;;;6.35;83.11
7832;BME280;3961;42.058;25.586;2023-02-22T05:11:04;62917.00;;;6.23;83.13
7832;BME280;3961;42.058;25.586;2023-02-22T05:13:30;62927.00;;;6.34;83.42
7832;BME280;3961;42.058;25.586;2023-02-22T05:15:56;62916.41;;;6.22;82.91
7832;BME280;3961;42.058;25.586;2023-02-22T05:18:21;62934.81;;;6.38;83.06
7832;BME280;3961;42.058;25.586;2023-02-22T05:20:47;62923.56;;;6.31;83.12
7832;BME280;3961;42.058;25.586;2023-02-22T05:23:13;62916.16;;;6.20;83.00
7832;BME280;3961;42.058;25.586;2023-02-22T05:25:38;62916.09;;;6.24;84.45
7832;BME280;3961;42.058;25.586;2023-02-22T05:28:08;62920.09;;;6.28;83.04
7832;BME280;3961;42.058;25.586;2023-02-22T05:30:36;62931.28;;;6.40;83.68
7832;BME280;3961;42.058;25.586;2023-02-22T05:33:04;62952.38;;;6.52;83.14
7832;BME280;3961;42.058;25.586;2023-02-22T05:35:29;62961.00;;;6.59;82.41
7832;BME280;3961;42.058;25.586;2023-02-22T05:37:55;62947.47;;;6.50;82.76
7832;BME280;3961;42.058;25.586;2023-02-22T05:40:24;62945.97;;;6.51;82.12
7832;BME280;3961;42.058;25.586;2023-02-22T05:42:51;62954.84;;;6.61;82.91
7832;BME280;3961;42.058;25.586;2023-02-22T05:45:20;62927.00;;;6.34;82.52
7832;BME280;3961;42.058;25.586;2023-02-22T05:47:46;62946.31;;;6.49;81.58
7832;BME280;3961;42.058;25.586;2023-02-22T05:50:12;62937.34;;;6.43;79.93
7832;BME280;3961;42.058;25.586;2023-02-22T05:52:37;62939.41;;;6.43;81.89
7832;BME280;3961;42.058;25.586;2023-02-22T05:55:04;62952.28;;;6.56;81.30
7832;BME280;3961;42.058;25.586;2023-02-22T05:57:30;62966.44;;;6.66;80.47
7832;BME280;3961;42.058;25.586;2023-02-22T05:59:56;62987.13;;;6.85;79.60
7832;BME280;3961;42.058;25.586;2023-02-22T06:02:21;62994.34;;;6.89;80.39
7832;BME280;3961;42.058;25.586;2023-02-22T06:04:47;62995.75;;;6.92;77.81
7832;BME280;3961;42.058;25.586;2023-02-22T06:07:13;63007.25;;;7.02;77.54
7832;BME280;3961;42.058;25.586;2023-02-22T06:09:38;63012.69;;;7.10;76.97
7832;BME280;3961;42.058;25.586;2023-02-22T06:12:04;63028.19;;;7.23;77.26
7832;BME280;3961;42.058;25.586;2023-02-22T06:14:30;63028.53;;;7.21;78.92
7832;BME280;3961;42.058;25.586;2023-02-22T06:16:56;63049.25;;;7.39;79.17
7832;BME280;3961;42.058;25.586;2023-02-22T06:19:22;63033.13;;;7.25;78.71
7832;BME280;3961;42.058;25.586;2023-02-22T06:21:53;63052.38;;;7.45;78.15
7832;BME280;3961;42.058;25.586;2023-02-22T06:24:19;63057.22;;;7.51;77.00
7832;BME280;3961;42.058;25.586;2023-02-22T06:26:45;63055.81;;;7.48;77.64
7832;BME280;3961;42.058;25.586;2023-02-22T06:29:11;63065.94;;;7.54;76.77
7832;BME280;3961;42.058;25.586;2023-02-22T06:31:36;63080.56;;;7.69;75.50
7832;BME280;3961;42.058;25.586;2023-02-22T06:34:02;63103.03;;;7.89;74.19
7832;BME280;3961;42.058;25.586;2023-02-22T06:36:28;63110.28;;;7.93;74.63
7832;BME280;3961;42.058;25.586;2023-02-22T06:38:55;63139.41;;;8.17;73.79
7832;BME280;3961;42.058;25.586;2023-02-22T06:41:21;63173.75;;;8.45;73.36
7832;BME280;3961;42.058;25.586;2023-02-22T06:43:47;63192.91;;;8.68;72.39
7832;BME280;3961;42.058;25.586;2023-02-22T06:46:12;63199.81;;;8.74;70.81
7832;BME280;3961;42.058;25.586;2023-02-22T06:48:38;63203.25;;;8.77;70.70
7832;BME280;3961;42.058;25.586;2023-02-22T06:51:08;63193.25;;;8.66;71.04
7832;BME280;3961;42.058;25.586;2023-02-22T06:53:34;63198.69;;;8.73;72.01
7832;BME280;3961;42.058;25.586;2023-02-22T06:56:00;63193.16;;;8.71;73.84
7832;BME280;3961;42.058;25.586;2023-02-22T06:58:26;63211.69;;;8.83;73.02
7832;BME280;3961;42.058;25.586;2023-02-22T07:00:52;63211.34;;;8.85;72.99
7832;BME280;3961;42.058;25.586;2023-02-22T07:03:18;63221.81;;;8.89;72.25
7832;BME280;3961;42.058;25.586;2023-02-22T07:05:43;63229.47;;;9.03;71.97
7832;BME280;3961;42.058;25.586;2023-02-22T07:08:09;63252.59;;;9.19;71.28
7832;BME280;3961;42.058;25.586;2023-02-22T07:10:36;63240.50;;;9.08;71.51
7832;BME280;3961;42.058;25.586;2023-02-22T07:13:04;63302.78;;;9.63;72.20
7832;BME280;3961;42.058;25.586;2023-02-22T07:15:32;63280.28;;;9.43;70.62
7832;BME280;3961;42.058;25.586;2023-02-22T07:17:58;63268.31;;;9.39;70.82
7832;BME280;3961;42.058;25.586;2023-02-22T07:20:25;63266.94;;;9.36;70.92
7832;BME280;3961;42.058;25.586;2023-02-22T07:22:51;63306.84;;;9.66;70.18
7832;BME280;3961;42.058;25.586;2023-02-22T07:25:17;63300.72;;;9.63;70.40
7832;BME280;3961;42.058;25.586;2023-02-22T07:27:44;63286.28;;;9.51;70.11
7832;BME280;3961;42.058;25.586;2023-02-22T07:30:22;63366.03;;;10.16;68.33
7832;BME280;3961;42.058;25.586;2023-02-22T07:32:53;63357.38;;;10.08;68.75
7832;BME280;3961;42.058;25.586;2023-02-22T07:35:24;63362.22;;;10.15;68.58
7832;BME280;3961;42.058;25.586;2023-02-22T07:37:50;63386.75;;;10.39;67.41
7832;BME280;3961;42.058;25.586;2023-02-22T07:40:16;63412.25;;;10.57;66.99
7832;BME280;3961;42.058;25.586;2023-02-22T07:45:54;63415.63;;;10.64;65.45
7832;BME280;3961;42.058;25.586;2023-02-22T07:48:21;63451.78;;;10.94;64.91
7832;BME280;3961;42.058;25.586;2023-02-22T07:50:48;63490.50;;;11.28;63.92
7832;BME280;3961;42.058;25.586;2023-02-22T07:53:17;63527.16;;;11.62;62.09
7832;BME280;3961;42.058;25.586;2023-02-22T07:55:43;63539.84;;;11.73;62.76
7832;BME280;3961;42.058;25.586;2023-02-22T07:58:12;63548.91;;;11.79;61.86
7832;BME280;3961;42.058;25.586;2023-02-22T08:00:40;63576.31;;;12.05;60.64
7832;BME280;3961;42.058;25.586;2023-02-22T08:03:10;63591.72;;;12.17;60.16
7832;BME280;3961;42.058;25.586;2023-02-22T08:05:38;63626.09;;;12.49;59.01
7832;BME280;3961;42.058;25.586;2023-02-22T08:08:06;63656.75;;;12.76;56.97
7832;BME280;3961;42.058;25.586;2023-02-22T08:10:33;63683.97;;;13.00;55.72
7832;BME280;3961;42.058;25.586;2023-02-22T08:13:00;63721.06;;;13.32;54.54
7832;BME280;3961;42.058;25.586;2023-02-22T08:15:31;63773.91;;;13.74;51.62
7832;BME280;3961;42.058;25.586;2023-02-22T08:17:58;63822.25;;;14.19;49.95
7832;BME280;3961;42.058;25.586;2023-02-22T08:20:25;63848.13;;;14.39;48.85
7832;BME280;3961;42.058;25.586;2023-02-22T08:22:52;63880.03;;;14.67;47.67
7832;BME280;3961;42.058;25.586;2023-02-22T08:25:19;63907.34;;;14.91;45.16
7832;BME280;3961;42.058;25.586;2023-02-22T08:27:45;63912.41;;;15.00;44.79
7832;BME280;3961;42.058;25.586;2023-02-22T08:30:18;63898.84;;;14.86;44.32
7832;BME280;3961;42.058;25.586;2023-02-22T08:32:47;63925.53;;;15.09;44.15
7832;BME280;3961;42.058;25.586;2023-02-22T08:35:15;63978.63;;;15.58;44.20
7832;BME280;3961;42.058;25.586;2023-02-22T08:37:51;64020.22;;;15.92;42.77
7832;BME280;3961;42.058;25.586;2023-02-22T08:40:19;64046.13;;;16.12;40.42
7832;BME280;3961;42.058;25.586;2023-02-22T08:42:45;64103.34;;;16.64;39.84
7832;BME280;3961;42.058;25.586;2023-02-22T08:45:12;64113.25;;;16.73;39.26
7832;BME280;3961;42.058;25.586;2023-02-22T08:47:38;64139.03;;;16.98;37.19
7832;BME280;3961;42.058;25.586;2023-02-22T08:50:04;64156.97;;;17.06;36.80
7832;BME280;3961;42.058;25.586;2023-02-22T08:52:30;64177.78;;;17.29;36.90
7832;BME280;3961;42.058;25.586;2023-02-22T08:54:56;64202.00;;;17.48;36.82
7832;BME280;3961;42.058;25.586;2023-02-22T08:57:22;64211.91;;;17.57;36.13
7832;BME280;3961;42.058;25.586;2023-02-22T08:59:47;64229.84;;;17.77;36.60
7832;BME280;3961;42.058;25.586;2023-02-22T09:02:19;64233.69;;;17.78;37.43
7832;BME280;3961;42.058;25.586;2023-02-22T09:04:45;64307.66;;;18.42;36.17
7832;BME280;3961;42.058;25.586;2023-02-22T09:07:12;64307.88;;;18.45;35.31
7832;BME280;3961;42.058;25.586;2023-02-22T09:09:37;64336.44;;;18.70;34.59
7832;BME280;3961;42.058;25.586;2023-02-22T09:12:03;64338.91;;;18.67;34.10
7832;BME280;3961;42.058;25.586;2023-02-22T09:14:29;64348.22;;;18.75;35.21
7832;BME280;3961;42.058;25.586;2023-02-22T09:16:55;64388.09;;;19.12;33.49
7832;BME280;3961;42.058;25.586;2023-02-22T09:19:20;64396.47;;;19.22;38.96
7832;BME280;3961;42.058;25.586;2023-02-22T09:22:00;64535.13;;;20.40;36.69
7832;BME280;3961;42.058;25.586;2023-02-22T09:24:25;64578.47;;;20.73;33.29
7832;BME280;3961;42.058;25.586;2023-02-22T09:26:51;64587.81;;;20.82;32.81
7832;BME280;3961;42.058;25.586;2023-02-22T09:29:21;64586.88;;;20.83;32.60
7832;BME280;3961;42.058;25.586;2023-02-22T09:31:48;64590.97;;;20.87;32.36
7832;BME280;3961;42.058;25.586;2023-02-22T09:34:14;64603.81;;;20.98;32.03
7832;BME280;3961;42.058;25.586;2023-02-22T09:36:42;64608.13;;;21.04;31.74
7832;BME280;3961;42.058;25.586;2023-02-22T09:39:08;64602.66;;;20.97;32.46
7832;BME280;3961;42.058;25.586;2023-02-22T09:41:55;64576.00;;;20.76;31.64
7832;BME280;3961;42.058;25.586;2023-02-22T09:47:44;64629.50;;;21.20;31.26
7832;BME280;3961;42.058;25.586;2023-02-22T09:50:15;64649.19;;;21.35;31.30
7832;BME280;3961;42.058;25.586;2023-02-22T09:52:53;64686.22;;;21.69;31.74
7832;BME280;3961;42.058;25.586;2023-02-22T09:57:51;64673.00;;;21.60;31.79
7832;BME280;3961;42.058;25.586;2023-02-22T10:00:22;64702.59;;;21.84;31.27
7832;BME280;3961;42.058;25.586;2023-02-22T10:03:08;64701.78;;;21.80;31.94
7832;BME280;3961;42.058;25.586;2023-02-22T10:05:50;64705.88;;;21.84;30.53
7832;BME280;3961;42.058;25.586;2023-02-22T10:08:18;64719.78;;;22.01;31.20
7832;BME280;3961;42.058;25.586;2023-02-22T10:10:46;64734.75;;;22.11;31.73
7832;BME280;3961;42.058;25.586;2023-02-22T10:16:52;64764.84;;;22.40;31.31
7832;BME280;3961;42.058;25.586;2023-02-22T10:25:09;64797.94;;;22.66;29.69
7832;BME280;3961;42.058;25.586;2023-02-22T10:27:56;64782.50;;;22.51;29.48
7832;BME280;3961;42.058;25.586;2023-02-22T10:30:27;64713.13;;;21.93;30.17
7832;BME280;3961;42.058;25.586;2023-02-22T10:33:04;64757.81;;;22.34;30.47
7832;BME280;3961;42.058;25.586;2023-02-22T10:35:35;64787.56;;;22.53;30.86
7832;BME280;3961;42.058;25.586;2023-02-22T10:38:11;64804.97;;;22.72;30.20
7832;BME280;3961;42.058;25.586;2023-02-22T10:40:43;64838.34;;;23.01;30.29
7832;BME280;3961;42.058;25.586;2023-02-22T10:43:11;64851.81;;;23.13;29.38
7832;BME280;3961;42.058;25.586;2023-02-22T10:45:38;64838.34;;;23.01;29.38
7832;BME280;3961;42.058;25.586;2023-02-22T10:48:11;64817.84;;;22.84;28.86
7832;BME280;3961;42.058;25.586;2023-02-22T10:50:41;64827.97;;;22.88;30.34
7832;BME280;3961;42.058;25.586;2023-02-22T10:53:08;64849.25;;;23.08;29.46
7832;BME280;3961;42.058;25.586;2023-02-22T10:55:35;64838.94;;;23.02;28.81
7832;BME280;3961;42.058;25.586;2023-02-22T10:58:04;64876.78;;;23.32;28.91
7832;BME280;3961;42.058;25.586;2023-02-22T11:00:38;64846.16;;;23.10;29.38
7832;BME280;3961;42.058;25.586;2023-02-22T11:03:19;64822.19;;;22.90;28.60
7832;BME280;3961;42.058;25.586;2023-02-22T11:05:46;64844.22;;;23.06;29.35
7832;BME280;3961;42.058;25.586;2023-02-22T11:10:56;64843.41;;;23.03;28.52
7832;BME280;3961;42.058;25.586;2023-02-22T11:13:26;64788.00;;;22.58;28.25
7832;BME280;3961;42.058;25.586;2023-02-22T11:15:53;64832.66;;;22.92;29.60
7832;BME280;3961;42.058;25.586;2023-02-22T11:18:32;64823.13;;;22.88;27.43
7832;BME280;3961;42.058;25.586;2023-02-22T11:21:07;64799.13;;;22.67;28.63
7832;BME280;3961;42.058;25.586;2023-02-22T11:23:35;64790.56;;;22.62;27.68
7832;BME280;3961;42.058;25.586;2023-02-22T11:26:05;64777.47;;;22.49;28.21
7832;BME280;3961;42.058;25.586;2023-02-22T11:28:32;64785.88;;;22.58;28.72
7832;BME280;3961;42.058;25.586;2023-02-22T11:31:22;64730.88;;;22.10;28.27
7832;BME280;3961;42.058;25.586;2023-02-22T11:33:52;64726.22;;;22.06;28.34
7832;BME280;3961;42.058;25.586;2023-02-22T11:36:33;64760.16;;;22.36;29.05
7832;BME280;3961;42.058;25.586;2023-02-22T11:39:03;64811.41;;;22.78;27.88
7832;BME280;3961;42.058;25.586;2023-02-22T11:41:31;64760.16;;;22.36;27.93
7832;BME280;3961;42.058;25.586;2023-02-22T11:44:26;64753.50;;;22.28;28.24
7832;BME280;3961;42.058;25.586;2023-02-22T11:46:53;64742.38;;;22.18;28.18
7832;BME280;3961;42.058;25.586;2023-02-22T11:49:22;64735.94;;;22.12;28.13
7832;BME280;3961;42.058;25.586;2023-02-22T12:08:52;64825.09;;;22.92;28.32
7832;BME280;3961;42.058;25.586;2023-02-22T12:19:53;64922.09;;;23.74;27.36
7832;BME280;3961;42.058;25.586;2023-02-22T12:25:17;64973.28;;;24.21;26.42
7832;BME280;3961;42.058;25.586;2023-02-22T12:27:47;64973.50;;;24.23;26.69
7832;BME280;3961;42.058;25.586;2023-02-22T12:30:21;64957.84;;;24.05;26.41
7832;BME280;3961;42.058;25.586;2023-02-22T12:32:51;64918.00;;;23.70;27.27
7832;BME280;3961;42.058;25.586;2023-02-22T12:41:03;64886.94;;;23.43;27.47
7832;BME280;3961;42.058;25.586;2023-02-22T12:43:42;64829.56;;;22.94;27.02
7832;BME280;3961;42.058;25.586;2023-02-22T12:46:17;64818.22;;;22.82;26.88
7832;BME280;3961;42.058;25.586;2023-02-22T12:48:53;64818.81;;;22.82;27.35
7832;BME280;3961;42.058;25.586;2023-02-22T12:54:03;64870.78;;;23.32;26.98
7832;BME280;3961;42.058;25.586;2023-02-22T12:56:39;64886.34;;;23.43;26.75
7832;BME280;3961;42.058;25.586;2023-02-22T12:59:22;64879.47;;;23.32;27.18
7832;BME280;3961;42.058;25.586;2023-02-22T13:02:07;64902.19;;;23.57;27.27
7832;BME280;3961;42.058;25.586;2023-02-22T13:04:35;64922.47;;;23.72;27.22
7832;BME280;3961;42.058;25.586;2023-02-22T13:07:55;64927.97;;;23.79;27.29
7832;BME280;3961;42.058;25.586;2023-02-22T13:10:22;64956.88;;;24.06;26.05
7832;BME280;3961;42.058;25.586;2023-02-22T13:15:39;64933.66;;;23.89;26.22
7832;BME280;3961;42.058;25.586;2023-02-22T13:18:16;64932.28;;;23.85;26.92
7832;BME280;3961;42.058;25.586;2023-02-22T13:26:43;64952.00;;;24.00;26.26
7832;BME280;3961;42.058;25.586;2023-02-22T13:35:07;64907.47;;;23.61;25.90
7832;BME280;3961;42.058;25.586;2023-02-22T13:46:39;64957.03;;;24.02;26.27
7832;BME280;3961;42.058;25.586;2023-02-22T13:52:00;64969.56;;;24.15;27.35
7832;BME280;3961;42.058;25.586;2023-02-22T13:54:40;64964.28;;;24.10;25.50
7832;BME280;3961;42.058;25.586;2023-02-22T13:57:24;64953.00;;;24.05;26.45
7832;BME280;3961;42.058;25.586;2023-02-22T14:08:04;64957.47;;;24.07;25.98
7832;BME280;3961;42.058;25.586;2023-02-22T14:10:38;64947.53;;;23.98;25.36
7832;BME280;3961;42.058;25.586;2023-02-22T14:13:08;64948.09;;;23.99;25.47
7832;BME280;3961;42.058;25.586;2023-02-22T14:15:35;64959.41;;;24.04;27.48
7832;BME280;3961;42.058;25.586;2023-02-22T14:20:29;64953.75;;;24.01;26.33
7832;BME280;3961;42.058;25.586;2023-02-22T14:23:23;64940.84;;;23.90;25.92
7832;BME280;3961;42.058;25.586;2023-02-22T14:25:43;64944.59;;;23.96;27.10
7832;BME280;3961;42.058;25.586;2023-02-22T14:31:06;64944.97;;;23.94;26.73
7832;BME280;3961;42.058;25.586;2023-02-22T14:34:04;64901.25;;;23.58;26.48
7832;BME280;3961;42.058;25.586;2023-02-22T14:36:34;64913.31;;;23.66;26.46
7832;BME280;3961;42.058;25.586;2023-02-22T14:41:50;64902.03;;;23.61;28.94
7832;BME280;3961;42.058;25.586;2023-02-22T14:44:24;64893.97;;;23.50;27.00
7832;BME280;3961;42.058;25.586;2023-02-22T14:46:56;64881.28;;;23.41;27.44
7832;BME280;3961;42.058;25.586;2023-02-22T14:49:28;64855.31;;;23.16;26.68
7832;BME280;3961;42.058;25.586;2023-02-22T14:51:58;64823.13;;;22.88;28.06
7832;BME280;3961;42.058;25.586;2023-02-22T14:54:46;64813.75;;;22.80;27.78
7832;BME280;3961;42.058;25.586;2023-02-22T14:57:29;64823.72;;;22.89;29.07
7832;BME280;3961;42.058;25.586;2023-02-22T15:00:13;64808.09;;;22.77;27.93
7832;BME280;3961;42.058;25.586;2023-02-22T15:02:49;64797.50;;;22.61;27.59
7832;BME280;3961;42.058;25.586;2023-02-22T15:05:18;64802.84;;;22.73;28.65
7832;BME280;3961;42.058;25.586;2023-02-22T15:07:54;64824.88;;;22.90;28.61
7832;BME280;3961;42.058;25.586;2023-02-22T15:10:23;64822.53;;;22.88;27.73
7832;BME280;3961;42.058;25.586;2023-02-22T15:12:52;64838.13;;;22.99;28.47
7832;BME280;3961;42.058;25.586;2023-02-22T15:15:20;64828.63;;;22.95;27.69
7832;BME280;3961;42.058;25.586;2023-02-22T15:17:54;64824.09;;;22.87;27.79
7832;BME280;3961;42.058;25.586;2023-02-22T15:20:20;64780.97;;;22.52;27.71
7832;BME280;3961;42.058;25.586;2023-02-22T15:22:48;64770.28;;;22.47;28.21
7832;BME280;3961;42.058;25.586;2023-02-22T15:25:14;64781.34;;;22.50;28.26
7832;BME280;3961;42.058;25.586;2023-02-22T15:27:44;64749.63;;;22.27;28.12
7832;BME280;3961;42.058;25.586;2023-02-22T15:30:27;64723.88;;;22.04;28.25
7832;BME280;3961;42.058;25.586;2023-02-22T15:32:53;64704.56;;;21.88;29.01
7832;BME280;3961;42.058;25.586;2023-02-22T15:38:17;64703.75;;;21.85;28.87
7832;BME280;3961;42.058;25.586;2023-02-22T15:40:45;64682.13;;;21.66;28.89
7832;BME280;3961;42.058;25.586;2023-02-22T15:43:22;64670.06;;;21.58;28.78
7832;BME280;3961;42.058;25.586;2023-02-22T15:45:50;64682.84;;;21.62;29.22
7832;BME280;3961;42.058;25.586;2023-02-22T15:48:17;64683.88;;;21.67;29.18